createdAt,value
2023-02-07T00:01:30.628Z,30.25
2023-02-07T00:03:59.700Z,24.70
2023-02-07T00:06:33.608Z,30.17
2023-02-07T00:09:04.218Z,26.45
2023-02-07T00:11:31.172Z,26.20
2023-02-07T00:13:59.991Z,25.38
2023-02-07T00:16:27.885Z,25.40
2023-02-07T00:18:55.564Z,24.27
2023-02-07T00:21:25.065Z,22.45
2023-02-07T00:23:53.508Z,25.60
2023-02-07T00:26:23.743Z,23.95
2023-02-07T00:28:53.748Z,22.65
2023-02-07T00:31:33.320Z,25.17
2023-02-07T00:34:04.021Z,23.85
2023-02-07T00:36:34.108Z,23.98
2023-02-07T00:39:05.442Z,23.02
2023-02-07T00:41:32.648Z,23.80
2023-02-07T00:43:59.605Z,25.20
2023-02-07T00:46:26.691Z,23.63
2023-02-07T00:48:53.560Z,25.77
2023-02-07T00:51:20.846Z,23.38
2023-02-07T00:53:48.390Z,23.67
2023-02-07T00:56:15.732Z,21.60
2023-02-07T00:58:42.529Z,24.70
2023-02-07T01:01:09.811Z,24.25
2023-02-07T01:03:36.724Z,25.80
2023-02-07T01:06:03.922Z,19.33
2023-02-07T01:08:30.967Z,21.40
2023-02-07T01:11:04.843Z,22.88
2023-02-07T01:13:31.998Z,22.67
2023-02-07T01:15:59.001Z,23.17
2023-02-07T01:18:26.590Z,20.48
2023-02-07T01:20:53.547Z,18.55
2023-02-07T01:23:20.452Z,17.23
2023-02-07T01:25:47.489Z,13.48
2023-02-07T01:28:15.965Z,15.38
2023-02-07T01:30:45.027Z,16.35
2023-02-07T01:33:12.165Z,16.13
2023-02-07T01:35:39.536Z,14.85
2023-02-07T01:38:07.885Z,12.35
2023-02-07T01:40:38.060Z,12.48
2023-02-07T01:57:36.769Z,12.25
2023-02-07T02:00:08.528Z,12.10
2023-02-07T02:02:38.140Z,11.52
2023-02-07T02:05:07.163Z,13.75
2023-02-07T02:07:35.642Z,11.55
2023-02-07T02:10:07.520Z,10.05
2023-02-07T02:12:46.446Z,10.07
2023-02-07T02:15:16.660Z,10.77
2023-02-07T02:18:34.409Z,11.07
2023-02-07T02:21:38.817Z,11.77
2023-02-07T02:24:32.936Z,10.85
2023-02-07T02:27:33.422Z,12.40
2023-02-07T02:30:25.168Z,12.50
2023-02-07T02:33:07.285Z,8.10
2023-02-07T02:35:45.077Z,11.57
2023-02-07T02:38:53.993Z,12.35
2023-02-07T02:41:30.842Z,11.73
2023-02-07T02:44:10.918Z,11.02
2023-02-07T02:46:42.125Z,15.10
2023-02-07T02:49:13.359Z,12.73
2023-02-07T02:51:40.788Z,12.23
2023-02-07T02:54:32.426Z,13.95
2023-02-07T02:57:10.853Z,12.45
2023-02-07T03:00:25.799Z,12.82
2023-02-07T03:03:19.376Z,10.00
2023-02-07T03:06:14.536Z,8.70
2023-02-07T03:08:57.380Z,10.45
2023-02-07T03:11:26.575Z,10.77
2023-02-07T03:14:20.012Z,8.70
2023-02-07T03:17:17.313Z,11.25
2023-02-07T03:19:58.220Z,10.18
2023-02-07T03:22:28.466Z,18.52
2023-02-07T03:25:01.540Z,14.88
2023-02-07T03:27:32.037Z,15.88
2023-02-07T03:30:07.150Z,16.05
2023-02-07T03:32:39.651Z,15.20
2023-02-07T03:35:38.191Z,13.52
2023-02-07T03:38:07.030Z,15.68
2023-02-07T03:40:47.875Z,11.70
2023-02-07T03:43:27.442Z,16.52
2023-02-07T03:45:55.776Z,12.68
2023-02-07T03:48:23.365Z,14.68
2023-02-07T03:50:52.067Z,11.15
2023-02-07T03:53:22.270Z,10.95
2023-02-07T03:55:49.129Z,13.88
2023-02-07T03:58:16.260Z,10.77
2023-02-07T04:00:43.352Z,8.38
2023-02-07T04:03:10.688Z,12.63
2023-02-07T04:05:38.492Z,13.60
2023-02-07T04:08:05.825Z,11.05
2023-02-07T04:10:33.136Z,10.82
2023-02-07T04:13:00.308Z,11.77
2023-02-07T04:15:27.478Z,14.20
2023-02-07T04:17:54.543Z,15.05
2023-02-07T04:20:21.580Z,11.50
2023-02-07T04:22:48.602Z,12.07
2023-02-07T04:25:15.650Z,16.08
2023-02-07T04:27:42.822Z,13.02
2023-02-07T04:30:10.895Z,10.27
2023-02-07T04:32:38.068Z,10.98
2023-02-07T04:35:05.471Z,9.38
2023-02-07T04:37:32.413Z,12.23
2023-02-07T04:39:59.644Z,10.02
2023-02-07T04:42:26.563Z,7.20
2023-02-07T04:44:53.673Z,10.13
2023-02-07T04:47:20.822Z,8.00
2023-02-07T04:49:47.878Z,9.60
2023-02-07T04:52:15.022Z,10.27
2023-02-07T04:54:42.219Z,9.43
2023-02-07T04:57:09.357Z,16.33
2023-02-07T04:59:36.428Z,9.57
2023-02-07T05:02:03.773Z,8.38
2023-02-07T05:04:31.045Z,10.07
2023-02-07T05:06:58.152Z,11.68
2023-02-07T05:09:25.558Z,11.68
2023-02-07T05:11:52.517Z,10.88
2023-02-07T05:14:19.529Z,11.85
2023-02-07T05:16:46.806Z,10.13
2023-02-07T05:19:13.967Z,12.65
2023-02-07T05:21:40.863Z,11.60
2023-02-07T05:24:08.218Z,14.35
2023-02-07T05:26:35.327Z,10.63
2023-02-07T05:29:02.477Z,9.35
2023-02-07T05:31:48.033Z,13.18
2023-02-07T05:34:15.086Z,10.15
2023-02-07T05:36:42.323Z,16.23
2023-02-07T05:39:09.374Z,13.68
2023-02-07T05:41:36.394Z,14.00
2023-02-07T05:44:03.492Z,15.52
2023-02-07T05:46:30.618Z,8.68
2023-02-07T05:48:57.922Z,9.13
2023-02-07T05:51:24.998Z,10.13
2023-02-07T05:53:52.204Z,17.63
2023-02-07T05:56:19.203Z,15.55
2023-02-07T05:58:46.090Z,15.32
2023-02-07T06:01:13.079Z,13.00
2023-02-07T06:03:40.166Z,10.75
2023-02-07T06:06:07.494Z,12.00
2023-02-07T06:08:34.652Z,13.88
2023-02-07T06:11:01.926Z,13.07
2023-02-07T06:13:29.010Z,11.75
2023-02-07T06:15:56.236Z,14.75
2023-02-07T06:18:23.514Z,10.55
2023-02-07T06:20:51.907Z,13.27
2023-02-07T06:23:21.002Z,12.98
2023-02-07T06:25:48.036Z,12.80
2023-02-07T06:28:15.577Z,13.77
2023-02-07T06:30:43.359Z,14.95
2023-02-07T06:33:10.349Z,13.70
2023-02-07T06:35:37.862Z,15.20
2023-02-07T06:38:05.109Z,19.83
2023-02-07T06:40:32.209Z,20.13
2023-02-07T06:42:59.220Z,20.00
2023-02-07T06:45:26.312Z,22.73
2023-02-07T06:47:54.382Z,19.92
2023-02-07T06:50:21.853Z,24.50
2023-02-07T06:52:49.022Z,25.20
2023-02-07T06:55:16.506Z,29.17
2023-02-07T06:57:43.809Z,30.27
2023-02-07T07:00:12.009Z,20.15
2023-02-07T07:02:39.286Z,21.88
2023-02-07T07:05:06.646Z,22.80
2023-02-07T07:07:33.499Z,25.77
2023-02-07T07:10:00.911Z,23.38
2023-02-07T07:12:28.055Z,24.30
2023-02-07T07:14:56.810Z,21.80
2023-02-07T07:17:24.118Z,20.52
2023-02-07T07:19:51.595Z,18.13
2023-02-07T07:22:21.175Z,17.23
2023-02-07T07:24:48.364Z,21.70
2023-02-07T07:27:15.445Z,23.48
2023-02-07T07:29:42.803Z,32.28
2023-02-07T07:32:17.765Z,29.45
2023-02-07T07:34:52.203Z,24.15
2023-02-07T07:37:19.156Z,30.95
2023-02-07T07:39:46.295Z,26.35
2023-02-07T07:42:13.444Z,30.75
2023-02-07T07:44:40.507Z,28.98
2023-02-07T07:47:08.446Z,27.35
2023-02-07T07:49:35.715Z,29.27
2023-02-07T07:52:02.774Z,28.17
2023-02-07T07:54:30.327Z,23.98
2023-02-07T07:56:57.442Z,24.00
2023-02-07T07:59:24.628Z,22.75
2023-02-07T08:01:52.110Z,23.50
2023-02-07T08:04:19.240Z,23.35
2023-02-07T08:06:46.606Z,18.85
2023-02-07T08:09:13.729Z,20.45
2023-02-07T08:11:41.817Z,20.13
2023-02-07T08:14:08.863Z,28.00
2023-02-07T08:16:36.065Z,20.42
2023-02-07T08:19:03.318Z,24.15
2023-02-07T08:21:31.028Z,22.95
2023-02-07T08:23:58.103Z,27.05
2023-02-07T08:26:25.467Z,26.92
2023-02-07T08:28:52.479Z,25.10
2023-02-07T08:31:19.656Z,24.77
2023-02-07T08:33:46.903Z,24.92
2023-02-07T08:49:36.273Z,17.42
2023-02-07T08:52:03.376Z,15.88
2023-02-07T08:54:31.017Z,20.10
2023-02-07T08:56:57.873Z,27.05
2023-02-07T08:59:24.900Z,29.58
2023-02-07T09:01:51.992Z,27.88
2023-02-07T09:04:18.863Z,32.20
2023-02-07T09:06:45.751Z,33.42
2023-02-07T09:09:12.812Z,46.30
2023-02-07T09:11:39.903Z,44.05
2023-02-07T09:14:06.737Z,42.92
2023-02-07T09:16:33.683Z,27.60
2023-02-07T09:19:00.618Z,19.48
2023-02-07T09:21:27.618Z,18.60
2023-02-07T09:23:54.694Z,13.88
2023-02-07T09:26:26.511Z,16.48
2023-02-07T09:28:53.454Z,15.88
2023-02-07T09:31:21.700Z,18.60
2023-02-07T09:33:48.705Z,14.40
2023-02-07T09:36:26.240Z,17.15
2023-02-07T09:38:53.458Z,17.10
2023-02-07T09:41:59.428Z,17.05
2023-02-07T09:45:04.645Z,27.92
2023-02-07T09:47:39.084Z,47.33
2023-02-07T09:50:19.994Z,40.47
2023-02-07T09:52:58.004Z,31.75
2023-02-07T09:55:57.120Z,18.63
2023-02-07T09:58:50.632Z,18.77
2023-02-07T10:01:56.186Z,19.05
2023-02-07T10:04:30.874Z,23.00
2023-02-07T10:07:00.117Z,16.63
2023-02-07T10:09:47.369Z,22.17
2023-02-07T10:12:35.876Z,19.02
2023-02-07T10:15:34.904Z,20.17
2023-02-07T10:18:23.842Z,21.40
2023-02-07T10:21:01.707Z,22.67
2023-02-07T10:23:50.163Z,20.45
2023-02-07T10:26:52.640Z,22.77
2023-02-07T10:29:59.373Z,21.38
2023-02-07T10:32:31.654Z,22.13
2023-02-07T10:35:16.398Z,18.55
2023-02-07T10:37:46.888Z,22.38
2023-02-07T10:40:33.211Z,23.95
2023-02-07T10:43:32.680Z,24.13
2023-02-07T10:46:09.892Z,24.50
2023-02-07T10:48:38.153Z,25.80
2023-02-07T10:51:32.986Z,20.58
2023-02-07T10:54:13.653Z,32.92
2023-02-07T10:56:48.118Z,24.23
2023-02-07T10:59:40.626Z,24.42
2023-02-07T11:02:29.350Z,23.90
2023-02-07T11:05:07.335Z,23.05
2023-02-07T11:07:46.149Z,30.30
2023-02-07T11:10:25.317Z,23.70
2023-02-07T11:12:58.835Z,27.15
2023-02-07T11:15:55.068Z,20.75
2023-02-07T11:18:28.331Z,18.98
2023-02-07T11:20:56.410Z,20.42
2023-02-07T11:23:25.367Z,21.42
2023-02-07T11:25:56.392Z,19.25
2023-02-07T11:28:33.522Z,22.88
2023-02-07T11:31:10.184Z,20.80
2023-02-07T11:33:37.531Z,18.90
2023-02-07T11:36:31.770Z,20.65
2023-02-07T11:39:00.729Z,23.10
2023-02-07T11:41:32.925Z,18.00
2023-02-07T11:44:16.131Z,18.75
2023-02-07T11:49:35.027Z,16.48
2023-02-07T11:52:03.262Z,14.93
2023-02-07T11:54:32.535Z,14.07
2023-02-07T11:57:15.053Z,16.42
2023-02-07T12:00:19.887Z,15.60
2023-02-07T12:03:08.848Z,15.77
2023-02-07T12:05:45.256Z,12.75
2023-02-07T12:08:19.829Z,10.65
2023-02-07T12:10:57.479Z,14.70
2023-02-07T12:13:44.367Z,11.63
2023-02-07T12:16:21.788Z,11.65
2023-02-07T12:18:57.882Z,13.43
2023-02-07T12:21:40.925Z,14.35
2023-02-07T12:24:23.645Z,14.18
2023-02-07T12:27:05.144Z,15.18
2023-02-07T12:30:09.576Z,12.55
2023-02-07T12:32:47.302Z,13.73
2023-02-07T12:35:57.484Z,12.70
2023-02-07T12:38:32.745Z,11.68
2023-02-07T12:41:24.442Z,12.52
2023-02-07T12:44:23.652Z,12.02
2023-02-07T12:47:20.298Z,14.68
2023-02-07T12:50:20.346Z,18.27
2023-02-07T12:53:15.227Z,17.40
2023-02-07T12:56:02.456Z,14.85
2023-02-07T12:59:06.512Z,18.25
2023-02-07T13:02:02.730Z,17.13
2023-02-07T13:05:05.948Z,17.67
2023-02-07T13:07:59.162Z,14.27
2023-02-07T13:11:00.994Z,14.43
2023-02-07T13:14:18.258Z,13.55
2023-02-07T13:17:16.558Z,12.32
2023-02-07T13:20:09.802Z,12.23
2023-02-07T13:22:57.958Z,12.13
2023-02-07T13:25:32.099Z,10.85
2023-02-07T13:28:05.349Z,17.33
2023-02-07T13:30:35.803Z,11.88
2023-02-07T13:33:28.014Z,12.25
2023-02-07T13:36:04.807Z,11.60
2023-02-07T13:38:56.395Z,12.48
2023-02-07T13:42:20.709Z,18.38
2023-02-07T13:45:04.323Z,15.50
2023-02-07T13:47:53.908Z,14.15
2023-02-07T13:50:41.577Z,23.60
2023-02-07T13:53:33.303Z,21.83
2023-02-07T13:56:30.776Z,10.25
2023-02-07T13:59:16.552Z,17.73
2023-02-07T14:01:52.369Z,20.40
2023-02-07T14:04:22.110Z,22.77
2023-02-07T14:07:05.286Z,17.30
2023-02-07T14:12:24.728Z,14.00
2023-02-07T14:15:02.252Z,12.63
2023-02-07T14:17:30.178Z,10.23
2023-02-07T14:19:59.916Z,10.68
2023-02-07T14:22:51.158Z,13.57
2023-02-07T14:25:31.516Z,11.60
2023-02-07T14:28:20.423Z,11.27
2023-02-07T14:30:53.615Z,14.93
2023-02-07T14:33:34.832Z,15.77
2023-02-07T14:36:12.569Z,14.15
2023-02-07T14:39:06.929Z,13.05
2023-02-07T14:41:39.229Z,13.80
2023-02-07T14:44:26.654Z,11.98
2023-02-07T14:46:58.007Z,15.82
2023-02-07T14:49:51.194Z,11.30
2023-02-07T14:52:31.019Z,10.13
2023-02-07T14:55:28.847Z,10.43
2023-02-07T14:58:12.717Z,10.10
2023-02-07T15:00:56.260Z,13.20
2023-02-07T15:03:23.162Z,13.23
2023-02-07T15:05:59.534Z,28.17
2023-02-07T15:08:30.537Z,13.05
2023-02-07T15:11:05.290Z,12.98
2023-02-07T15:13:47.834Z,27.95
2023-02-07T15:16:31.111Z,17.58
2023-02-07T15:19:04.432Z,13.27
2023-02-07T15:21:41.881Z,16.75
2023-02-07T15:24:20.336Z,14.70
2023-02-07T15:26:57.520Z,14.45
2023-02-07T15:29:34.923Z,19.88
2023-02-07T15:32:20.073Z,22.20
2023-02-07T15:34:47.102Z,42.50
2023-02-07T15:37:20.040Z,50.00
2023-02-07T15:42:20.789Z,18.85
2023-02-07T15:47:28.237Z,11.55
2023-02-07T15:50:20.335Z,24.52
2023-02-07T15:52:53.820Z,30.02
2023-02-07T15:55:41.458Z,37.53
2023-02-07T15:58:21.161Z,24.48
2023-02-07T16:00:49.289Z,22.27
2023-02-07T16:03:23.273Z,23.23
2023-02-07T16:06:20.737Z,21.08
2023-02-07T16:09:00.835Z,19.20
2023-02-07T16:11:30.712Z,15.88
2023-02-07T16:14:25.697Z,14.45
2023-02-07T16:16:55.600Z,33.15
2023-02-07T16:19:31.885Z,88.75
2023-02-07T16:22:16.419Z,62.17
2023-02-07T16:24:47.239Z,96.03
2023-02-07T16:27:27.465Z,66.93
2023-02-07T16:29:55.401Z,28.33
2023-02-07T16:32:23.798Z,25.65
2023-02-07T16:34:59.695Z,24.98
2023-02-07T16:37:28.962Z,25.17
2023-02-07T16:39:55.964Z,23.77
2023-02-07T16:42:23.077Z,21.85
2023-02-07T16:44:50.175Z,20.08
2023-02-07T16:47:18.953Z,20.00
2023-02-07T16:49:46.820Z,21.55
2023-02-07T16:52:13.971Z,19.73
2023-02-07T16:54:40.934Z,24.67
2023-02-07T16:57:11.245Z,25.25
2023-02-07T16:59:38.305Z,36.28
2023-02-07T17:02:15.073Z,43.38
2023-02-07T17:04:42.185Z,62.95
2023-02-07T17:07:12.513Z,84.95
2023-02-07T17:09:39.430Z,73.93
2023-02-07T17:12:07.417Z,72.50
2023-02-07T17:14:36.400Z,66.30
2023-02-07T17:17:03.368Z,61.35
2023-02-07T17:19:30.329Z,66.75
2023-02-07T17:21:57.332Z,46.85
2023-02-07T17:24:24.417Z,48.63
2023-02-07T17:26:54.448Z,53.60
2023-02-07T17:29:21.899Z,51.95
2023-02-07T17:31:49.724Z,83.07
2023-02-07T17:34:17.087Z,256.98
2023-02-07T17:36:49.179Z,158.20
2023-02-07T17:39:18.933Z,72.20
2023-02-07T17:41:46.045Z,41.50
2023-02-07T17:44:12.922Z,43.70
2023-02-07T17:46:40.053Z,43.15
2023-02-07T17:49:14.751Z,43.60
2023-02-07T17:51:42.089Z,41.88
2023-02-07T17:54:09.324Z,37.25
2023-02-07T17:56:36.441Z,37.90
2023-02-07T17:59:07.383Z,28.83
2023-02-07T18:01:34.703Z,28.95
2023-02-07T18:04:02.752Z,34.97
2023-02-07T18:06:31.295Z,33.78
2023-02-07T18:08:58.964Z,28.80
2023-02-07T18:11:27.288Z,32.78
2023-02-07T18:13:56.833Z,36.35
2023-02-07T18:16:26.788Z,40.25
2023-02-07T18:18:56.983Z,50.83
2023-02-07T18:21:25.008Z,99.32
2023-02-07T18:23:54.824Z,102.57
2023-02-07T18:26:22.344Z,99.10
2023-02-07T18:28:50.360Z,83.25
2023-02-07T18:31:22.288Z,49.58
2023-02-07T18:33:51.050Z,70.28
2023-02-07T18:36:19.150Z,61.63
2023-02-07T18:38:46.308Z,53.80
2023-02-07T18:41:21.104Z,59.28
2023-02-07T18:43:48.882Z,47.65
2023-02-07T18:46:21.244Z,56.05
2023-02-07T18:48:53.532Z,59.00
2023-02-07T18:51:20.443Z,59.80
2023-02-07T18:53:50.776Z,103.65
2023-02-07T18:56:22.238Z,275.90
2023-02-07T18:58:52.953Z,427.35
2023-02-07T19:01:21.056Z,362.00
2023-02-07T19:03:54.721Z,261.02
2023-02-07T19:06:26.304Z,219.85
2023-02-07T19:23:08.076Z,181.40
2023-02-07T19:25:52.240Z,166.95
2023-02-07T19:28:20.383Z,154.82
2023-02-07T19:30:48.431Z,143.82
2023-02-07T19:33:16.236Z,145.68
2023-02-07T19:35:43.516Z,138.02
2023-02-07T19:38:10.824Z,148.63
2023-02-07T19:40:38.431Z,142.65
2023-02-07T19:43:05.691Z,123.80
2023-02-07T19:45:33.606Z,124.05
2023-02-07T19:48:00.966Z,82.47
2023-02-07T19:50:28.195Z,74.93
2023-02-07T19:52:55.420Z,69.15
2023-02-07T19:55:22.742Z,108.57
2023-02-07T19:57:49.801Z,104.82
2023-02-07T20:00:18.096Z,65.43
2023-02-07T20:02:45.298Z,49.75
2023-02-07T20:05:12.359Z,42.92
2023-02-07T20:07:39.445Z,41.97
2023-02-07T20:10:07.279Z,41.42
2023-02-07T20:12:34.445Z,44.03
2023-02-07T20:15:01.490Z,88.10
2023-02-07T20:17:28.817Z,47.13
2023-02-07T20:19:55.896Z,46.47
2023-02-07T20:22:22.947Z,44.90
2023-02-07T20:24:50.277Z,41.05
2023-02-07T20:27:17.515Z,42.83
2023-02-07T20:29:44.876Z,44.50
2023-02-07T20:32:14.125Z,35.75
2023-02-07T20:34:41.220Z,37.45
2023-02-07T20:37:10.463Z,33.88
2023-02-07T20:39:38.613Z,36.58
2023-02-07T20:42:06.141Z,30.92
2023-02-07T20:44:33.329Z,30.88
2023-02-07T20:47:00.680Z,32.13
2023-02-07T20:49:31.594Z,31.13
2023-02-07T20:52:00.066Z,35.45
2023-02-07T20:54:29.483Z,30.67
2023-02-07T20:57:00.639Z,32.55
2023-02-07T20:59:32.773Z,31.13
2023-02-07T21:02:00.822Z,32.15
2023-02-07T21:04:29.120Z,33.80
2023-02-07T21:06:56.763Z,28.45
2023-02-07T21:09:24.405Z,31.27
2023-02-07T21:11:53.354Z,29.92
2023-02-07T21:14:27.861Z,30.08
2023-02-07T21:16:57.723Z,29.58
2023-02-07T21:19:25.896Z,32.90
2023-02-07T21:21:55.127Z,35.03
2023-02-07T21:24:22.850Z,34.35
2023-02-07T21:26:53.004Z,34.72
2023-02-07T21:29:21.440Z,31.70
2023-02-07T21:31:49.953Z,35.35
2023-02-07T21:34:21.701Z,32.40
2023-02-07T21:36:50.153Z,33.80
2023-02-07T21:39:17.696Z,30.45
2023-02-07T21:41:47.087Z,33.20
2023-02-07T21:44:15.519Z,35.10
2023-02-07T21:46:46.226Z,33.85
2023-02-07T21:49:18.025Z,33.17
2023-02-07T21:51:48.146Z,39.47
2023-02-07T21:54:15.988Z,54.40
2023-02-07T21:56:44.676Z,65.80
2023-02-07T21:59:16.260Z,63.33
2023-02-07T22:01:44.954Z,48.58
2023-02-07T22:04:14.328Z,45.95
2023-02-07T22:06:43.711Z,39.67
2023-02-07T22:09:16.561Z,41.25
2023-02-07T22:11:44.069Z,44.97
2023-02-07T22:14:15.752Z,43.42
2023-02-07T22:16:43.658Z,44.97
2023-02-07T22:19:13.980Z,39.78
2023-02-07T22:21:41.195Z,33.35
2023-02-07T22:24:09.915Z,35.10
2023-02-07T22:26:36.904Z,35.42
2023-02-07T22:29:06.786Z,34.72
2023-02-07T22:31:38.132Z,31.90
2023-02-07T22:34:14.589Z,34.22
2023-02-07T22:36:44.761Z,35.80
2023-02-07T22:39:15.251Z,33.25
2023-02-07T22:41:42.885Z,36.85
2023-02-07T22:44:10.203Z,30.70
2023-02-07T22:46:37.402Z,31.30
2023-02-07T22:49:04.636Z,28.98
2023-02-07T22:51:36.451Z,30.92
2023-02-07T22:54:07.805Z,30.92
2023-02-07T22:56:37.879Z,29.30
2023-02-07T22:59:06.212Z,30.17
2023-02-07T23:01:38.898Z,31.90
2023-02-07T23:06:35.546Z,29.70
2023-02-07T23:09:05.361Z,38.47
2023-02-07T23:11:32.837Z,36.63
2023-02-07T23:13:59.951Z,41.45
2023-02-07T23:16:31.142Z,42.47
2023-02-07T23:19:04.773Z,42.85
2023-02-07T23:21:31.799Z,45.60
2023-02-07T23:23:59.060Z,41.63
2023-02-07T23:26:28.001Z,38.10
2023-02-07T23:28:55.128Z,37.17
2023-02-07T23:31:25.051Z,38.90
2023-02-07T23:33:53.935Z,33.13
2023-02-07T23:36:21.815Z,29.42
2023-02-07T23:38:50.504Z,29.48
2023-02-07T23:41:18.458Z,29.10
2023-02-07T23:43:46.657Z,28.27
2023-02-07T23:46:15.262Z,27.98
2023-02-07T23:48:42.410Z,26.50
2023-02-07T23:51:12.821Z,26.05
2023-02-07T23:53:39.962Z,26.77
2023-02-07T23:56:07.834Z,24.65
2023-02-07T23:58:35.164Z,24.00
